createdAt,value
2023-09-02T00:00:14.574Z,7.03
2023-09-02T00:02:47.180Z,7.60
2023-09-02T00:05:19.921Z,7.75
2023-09-02T00:07:52.437Z,7.32
2023-09-02T00:10:24.941Z,7.68
2023-09-02T00:12:57.524Z,7.88
2023-09-02T00:15:30.360Z,7.50
2023-09-02T00:18:03.031Z,7.18
2023-09-02T00:20:35.702Z,8.05
2023-09-02T00:23:08.214Z,7.95
2023-09-02T00:25:40.659Z,7.65
2023-09-02T00:28:13.246Z,6.82
2023-09-02T00:30:45.708Z,7.07
2023-09-02T00:33:18.313Z,7.30
2023-09-02T00:35:51.089Z,7.90
2023-09-02T00:38:23.924Z,6.60
2023-09-02T00:41:01.834Z,7.28
2023-09-02T00:43:35.064Z,7.32
2023-09-02T00:46:09.656Z,7.10
2023-09-02T00:48:42.797Z,6.38
2023-09-02T00:51:15.345Z,6.43
2023-09-02T00:53:47.766Z,6.85
2023-09-02T00:56:20.809Z,8.15
2023-09-02T00:58:56.632Z,6.68
2023-09-02T01:01:32.616Z,6.90
2023-09-02T01:04:05.601Z,7.93
2023-09-02T01:06:39.520Z,7.20
2023-09-02T01:09:12.327Z,7.55
2023-09-02T01:11:44.850Z,7.50
2023-09-02T01:14:17.657Z,7.10
2023-09-02T01:16:51.083Z,6.95
2023-09-02T01:19:23.599Z,7.70
2023-09-02T01:22:11.971Z,8.70
2023-09-02T01:27:53.356Z,7.38
2023-09-02T01:30:30.167Z,6.85
2023-09-02T01:33:07.241Z,7.13
2023-09-02T01:35:41.040Z,7.85
2023-09-02T01:38:15.410Z,7.82
2023-09-02T01:40:51.572Z,7.25
2023-09-02T01:43:25.889Z,7.68
2023-09-02T01:45:59.445Z,7.05
2023-09-02T01:48:32.273Z,6.88
2023-09-02T01:51:05.570Z,6.93
2023-09-02T01:53:38.227Z,8.15
2023-09-02T01:56:11.505Z,7.50
2023-09-02T01:58:44.049Z,7.00
2023-09-02T02:01:17.129Z,7.18
2023-09-02T02:04:16.482Z,6.43
2023-09-02T02:06:53.870Z,6.75
2023-09-02T02:09:33.634Z,7.05
2023-09-02T02:12:08.349Z,7.40
2023-09-02T02:14:41.065Z,6.28
2023-09-02T02:17:14.406Z,6.70
2023-09-02T02:19:46.979Z,6.38
2023-09-02T02:22:20.223Z,6.20
2023-09-02T02:24:52.709Z,7.03
2023-09-02T02:27:25.219Z,6.80
2023-09-02T02:29:58.899Z,6.93
2023-09-02T02:32:31.481Z,7.03
2023-09-02T02:35:04.409Z,6.07
2023-09-02T02:37:36.948Z,6.47
2023-09-02T02:40:10.020Z,6.15
2023-09-02T02:42:42.585Z,5.38
2023-09-02T02:45:15.200Z,5.32
2023-09-02T02:47:47.736Z,5.43
2023-09-02T02:50:20.214Z,4.90
2023-09-02T02:52:52.819Z,4.75
2023-09-02T02:55:25.324Z,4.55
2023-09-02T02:57:58.004Z,4.80
2023-09-02T03:00:33.501Z,4.97
2023-09-02T03:05:43.745Z,4.43
2023-09-02T03:08:16.206Z,3.97
2023-09-02T03:10:59.840Z,3.92
2023-09-02T03:13:35.085Z,4.13
2023-09-02T03:16:07.858Z,4.15
2023-09-02T03:18:41.979Z,4.20
2023-09-02T03:21:14.475Z,4.47
2023-09-02T03:23:47.535Z,4.72
2023-09-02T03:26:21.261Z,4.18
2023-09-02T03:28:54.756Z,3.78
2023-09-02T03:31:27.500Z,3.85
2023-09-02T03:34:00.131Z,4.10
2023-09-02T03:36:32.705Z,4.68
2023-09-02T03:39:05.973Z,3.92
2023-09-02T03:41:39.166Z,3.80
2023-09-02T03:44:11.801Z,4.07
2023-09-02T03:46:44.427Z,3.55
2023-09-02T03:49:16.980Z,3.88
2023-09-02T03:51:49.453Z,3.38
2023-09-02T03:54:22.000Z,3.30
2023-09-02T03:56:54.492Z,3.35
2023-09-02T03:59:27.016Z,3.45
2023-09-02T04:01:59.523Z,3.60
2023-09-02T04:04:32.067Z,3.88
2023-09-02T04:07:04.545Z,3.22
2023-09-02T04:09:37.095Z,3.55
2023-09-02T04:12:09.563Z,3.53
2023-09-02T04:14:42.027Z,3.63
2023-09-02T04:17:14.550Z,2.97
2023-09-02T04:19:47.082Z,3.35
2023-09-02T04:22:19.610Z,3.00
2023-09-02T04:24:52.195Z,3.40
2023-09-02T04:27:24.664Z,3.20
2023-09-02T04:29:57.111Z,2.95
2023-09-02T04:32:29.719Z,2.60
2023-09-02T04:35:03.541Z,3.20
2023-09-02T04:37:36.093Z,2.85
2023-09-02T04:40:10.602Z,3.20
2023-09-02T04:42:43.106Z,3.60
2023-09-02T04:45:15.686Z,3.00
2023-09-02T04:47:48.222Z,3.08
2023-09-02T04:50:21.642Z,3.20
2023-09-02T04:52:54.431Z,2.88
2023-09-02T04:55:27.664Z,2.95
2023-09-02T04:58:00.608Z,3.15
2023-09-02T05:00:34.792Z,3.00
2023-09-02T05:03:09.615Z,2.65
2023-09-02T05:05:42.456Z,3.47
2023-09-02T05:08:15.018Z,3.20
2023-09-02T05:10:47.581Z,2.95
2023-09-02T05:13:20.464Z,2.85
2023-09-02T05:15:53.294Z,2.97
2023-09-02T05:18:25.840Z,3.15
2023-09-02T05:20:58.495Z,3.13
2023-09-02T05:23:31.105Z,2.70
2023-09-02T05:26:03.864Z,2.90
2023-09-02T05:28:36.513Z,2.88
2023-09-02T05:31:09.455Z,2.90
2023-09-02T05:33:41.960Z,3.65
2023-09-02T05:36:14.575Z,3.25
2023-09-02T05:38:47.294Z,3.30
2023-09-02T05:41:19.996Z,3.28
2023-09-02T05:43:52.566Z,3.28
2023-09-02T05:46:25.301Z,2.78
2023-09-02T05:48:57.886Z,3.00
2023-09-02T05:51:30.830Z,3.40
2023-09-02T05:54:03.958Z,2.85
2023-09-02T05:56:37.672Z,3.00
2023-09-02T05:59:10.342Z,3.42
2023-09-02T06:01:44.402Z,3.35
2023-09-02T06:04:17.213Z,3.35
2023-09-02T06:06:49.654Z,3.65
2023-09-02T06:09:22.229Z,2.80
2023-09-02T06:11:54.979Z,3.40
2023-09-02T06:14:27.545Z,3.53
2023-09-02T06:17:00.098Z,3.83
2023-09-02T06:19:32.662Z,3.30
2023-09-02T06:22:05.291Z,3.90
2023-09-02T06:24:37.918Z,3.53
2023-09-02T06:27:10.465Z,3.50
2023-09-02T06:29:45.968Z,3.45
2023-09-02T06:32:18.469Z,3.70
2023-09-02T06:34:51.380Z,3.65
2023-09-02T06:37:23.874Z,4.18
2023-09-02T06:39:56.461Z,3.38
2023-09-02T06:42:29.053Z,3.53
2023-09-02T06:45:01.635Z,3.78
2023-09-02T06:47:34.245Z,3.67
2023-09-02T06:50:07.528Z,3.88
2023-09-02T06:52:40.073Z,3.35
2023-09-02T06:55:12.552Z,4.05
2023-09-02T06:57:45.641Z,4.07
2023-09-02T07:00:18.168Z,4.32
2023-09-02T07:02:50.902Z,4.88
2023-09-02T07:05:23.378Z,4.57
2023-09-02T07:07:56.012Z,3.95
2023-09-02T07:10:28.490Z,4.57
2023-09-02T07:13:00.974Z,4.90
2023-09-02T07:15:33.653Z,4.45
2023-09-02T07:18:06.313Z,4.38
2023-09-02T07:20:38.987Z,4.68
2023-09-02T07:23:11.442Z,4.43
2023-09-02T07:25:43.953Z,4.90
2023-09-02T07:28:16.404Z,5.20
2023-09-02T07:30:49.029Z,5.05
2023-09-02T07:33:21.769Z,5.65
2023-09-02T07:35:54.646Z,4.78
2023-09-02T07:38:27.730Z,5.13
2023-09-02T07:41:00.242Z,4.53
2023-09-02T07:43:33.259Z,4.90
2023-09-02T07:46:06.074Z,4.72
2023-09-02T07:48:38.670Z,4.97
2023-09-02T07:51:11.087Z,4.80
2023-09-02T07:53:43.609Z,4.60
2023-09-02T07:56:16.728Z,4.80
2023-09-02T07:58:50.229Z,5.20
2023-09-02T08:01:22.896Z,4.45
2023-09-02T08:03:55.369Z,5.00
2023-09-02T08:06:27.841Z,4.60
2023-09-02T08:09:01.377Z,4.72
2023-09-02T08:11:33.893Z,5.78
2023-09-02T08:14:06.406Z,5.28
2023-09-02T08:16:38.820Z,5.65
2023-09-02T08:19:11.320Z,5.80
2023-09-02T08:21:43.793Z,5.60
2023-09-02T08:24:16.328Z,6.07
2023-09-02T08:26:48.795Z,5.95
2023-09-02T08:29:21.293Z,6.32
2023-09-02T08:31:54.819Z,6.28
2023-09-02T08:34:27.517Z,6.75
2023-09-02T08:37:00.059Z,6.15
2023-09-02T08:39:32.641Z,6.20
2023-09-02T08:42:06.179Z,7.45
2023-09-02T08:44:39.692Z,7.13
2023-09-02T08:47:12.566Z,7.60
2023-09-02T08:49:45.491Z,7.53
2023-09-02T08:52:18.698Z,6.15
2023-09-02T08:54:52.521Z,6.95
2023-09-02T08:57:25.113Z,6.93
2023-09-02T08:59:57.832Z,7.60
2023-09-02T09:02:30.638Z,7.53
2023-09-02T09:05:04.610Z,7.30
2023-09-02T09:07:41.717Z,6.78
2023-09-02T09:10:17.134Z,7.82
2023-09-02T09:12:52.270Z,7.88
2023-09-02T09:15:25.506Z,8.40
2023-09-02T09:17:58.415Z,8.48
2023-09-02T09:20:32.442Z,9.95
2023-09-02T09:23:10.935Z,9.48
2023-09-02T09:25:43.674Z,9.32
2023-09-02T09:28:16.691Z,8.98
2023-09-02T09:30:49.158Z,10.55
2023-09-02T09:33:22.056Z,10.13
2023-09-02T09:36:11.144Z,10.20
2023-09-02T09:38:43.903Z,11.65
2023-09-02T09:41:16.453Z,11.55
2023-09-02T09:44:11.458Z,10.93
2023-09-02T09:46:43.902Z,9.02
2023-09-02T09:49:23.564Z,8.32
2023-09-02T09:52:10.344Z,9.35
2023-09-02T09:54:46.827Z,9.75
2023-09-02T09:57:38.768Z,9.73
2023-09-02T10:00:16.133Z,10.15
2023-09-02T10:02:56.486Z,9.35
2023-09-02T10:05:34.165Z,9.90
2023-09-02T10:08:08.380Z,9.95
2023-09-02T10:10:41.471Z,9.23
2023-09-02T10:13:14.152Z,8.45
2023-09-02T10:15:48.388Z,9.40
2023-09-02T10:18:24.498Z,9.55
2023-09-02T10:20:57.276Z,8.70
2023-09-02T10:23:30.138Z,10.05
2023-09-02T10:26:15.810Z,9.65
2023-09-02T10:28:50.683Z,9.68
2023-09-02T10:31:26.044Z,10.10
2023-09-02T10:34:04.398Z,10.00
2023-09-02T10:36:40.025Z,10.05
2023-09-02T10:39:22.453Z,9.63
2023-09-02T10:41:56.861Z,10.20
2023-09-02T10:44:30.592Z,9.75
2023-09-02T10:47:04.160Z,9.60
2023-09-02T10:49:37.544Z,8.82
2023-09-02T10:52:13.776Z,9.95
2023-09-02T10:55:03.106Z,10.13
2023-09-02T10:57:57.186Z,10.23
2023-09-02T11:03:02.714Z,9.60
2023-09-02T11:06:07.708Z,10.75
2023-09-02T11:08:51.025Z,10.82
2023-09-02T11:11:23.822Z,11.57
2023-09-02T11:14:08.956Z,11.32
2023-09-02T11:16:44.148Z,12.57
2023-09-02T11:19:16.670Z,11.32
2023-09-02T11:21:49.353Z,11.88
2023-09-02T11:24:24.088Z,11.25
2023-09-02T11:26:58.770Z,11.70
2023-09-02T11:29:31.832Z,11.90
2023-09-02T11:32:05.914Z,12.13
2023-09-02T11:34:38.554Z,12.80
2023-09-02T11:37:12.408Z,12.10
2023-09-02T11:39:46.236Z,12.00
2023-09-02T11:42:18.789Z,11.57
2023-09-02T11:44:52.491Z,12.07
2023-09-02T11:47:25.106Z,12.43
2023-09-02T11:49:57.665Z,11.05
2023-09-02T11:52:30.223Z,11.23
2023-09-02T11:55:14.872Z,11.88
2023-09-02T11:57:47.770Z,11.55
2023-09-02T12:00:21.931Z,11.20
2023-09-02T12:02:58.054Z,11.73
2023-09-02T12:05:30.851Z,11.02
2023-09-02T12:08:03.666Z,10.82
2023-09-02T12:10:36.138Z,11.23
2023-09-02T12:13:10.213Z,11.50
2023-09-02T12:15:43.216Z,11.95
2023-09-02T12:18:16.233Z,10.40
2023-09-02T12:20:49.967Z,11.43
2023-09-02T12:23:22.751Z,11.52
2023-09-02T12:26:04.795Z,12.63
2023-09-02T12:28:37.689Z,11.13
2023-09-02T12:31:10.270Z,11.32
2023-09-02T12:33:42.771Z,11.98
2023-09-02T12:36:15.391Z,11.48
2023-09-02T12:38:49.317Z,12.00
2023-09-02T12:41:21.877Z,11.05
2023-09-02T12:43:54.493Z,11.30
2023-09-02T12:46:27.051Z,10.15
2023-09-02T12:49:00.265Z,10.73
2023-09-02T12:51:38.282Z,11.25
2023-09-02T12:54:12.458Z,10.50
2023-09-02T12:56:44.894Z,10.02
2023-09-02T12:59:17.369Z,9.95
2023-09-02T13:01:51.945Z,10.55
2023-09-02T13:04:25.078Z,10.85
2023-09-02T13:06:57.567Z,10.00
2023-09-02T13:09:31.902Z,10.32
2023-09-02T13:12:04.745Z,10.00
2023-09-02T13:14:39.393Z,9.85
2023-09-02T13:17:12.565Z,10.45
2023-09-02T13:19:48.709Z,9.32
2023-09-02T13:22:21.300Z,10.18
2023-09-02T13:24:53.790Z,10.82
2023-09-02T13:27:29.421Z,10.65
2023-09-02T13:30:01.920Z,10.35
2023-09-02T13:32:36.266Z,10.88
2023-09-02T13:35:24.905Z,10.20
2023-09-02T13:37:59.660Z,10.60
2023-09-02T13:40:38.375Z,11.13
2023-09-02T13:43:23.583Z,11.00
2023-09-02T13:45:56.210Z,10.05
2023-09-02T13:48:29.869Z,10.63
2023-09-02T13:51:05.493Z,10.18
2023-09-02T13:53:38.424Z,10.80
2023-09-02T13:56:11.301Z,10.80
2023-09-02T13:58:44.074Z,10.63
2023-09-02T14:01:16.561Z,9.95
2023-09-02T14:03:50.053Z,8.52
2023-09-02T14:06:23.035Z,10.02
2023-09-02T14:08:56.409Z,10.02
2023-09-02T14:11:32.314Z,10.68
2023-09-02T14:14:05.533Z,10.93
2023-09-02T14:16:38.054Z,10.70
2023-09-02T14:19:10.621Z,9.57
2023-09-02T14:21:43.563Z,9.95
2023-09-02T14:24:16.074Z,8.32
2023-09-02T14:27:07.404Z,8.55
2023-09-02T14:29:40.345Z,9.02
2023-09-02T14:32:12.937Z,9.13
2023-09-02T14:34:47.773Z,9.27
2023-09-02T14:37:20.669Z,9.10
2023-09-02T14:39:53.154Z,8.82
2023-09-02T14:42:25.962Z,10.18
2023-09-02T14:44:58.913Z,9.05
2023-09-02T14:47:32.720Z,10.02
2023-09-02T14:50:05.940Z,10.00
2023-09-02T14:52:40.231Z,9.88
2023-09-02T14:55:15.885Z,11.45
2023-09-02T14:57:52.506Z,10.73
2023-09-02T15:00:25.699Z,10.60
2023-09-02T15:03:02.054Z,10.60
2023-09-02T15:05:35.419Z,9.93
2023-09-02T15:08:07.906Z,10.05
2023-09-02T15:10:40.447Z,10.00
2023-09-02T15:13:14.537Z,9.68
2023-09-02T15:15:47.296Z,8.75
2023-09-02T15:18:22.741Z,8.82
2023-09-02T15:20:56.973Z,9.18
2023-09-02T15:23:33.136Z,8.50
2023-09-02T15:26:06.233Z,9.93
2023-09-02T15:28:38.702Z,9.23
2023-09-02T15:31:13.954Z,9.05
2023-09-02T15:33:47.837Z,8.98
2023-09-02T15:36:22.545Z,10.65
2023-09-02T15:38:55.053Z,9.82
2023-09-02T15:41:27.552Z,9.25
2023-09-02T15:44:00.090Z,10.55
2023-09-02T15:46:32.629Z,9.50
2023-09-02T15:49:05.193Z,7.60
2023-09-02T15:51:37.916Z,7.63
2023-09-02T15:54:10.405Z,8.65
2023-09-02T15:56:42.903Z,8.52
2023-09-02T15:59:15.997Z,7.80
2023-09-02T16:01:48.606Z,8.82
2023-09-02T16:04:21.591Z,11.02
2023-09-02T16:06:54.098Z,8.32
2023-09-02T16:09:26.814Z,9.30
2023-09-02T16:11:59.328Z,8.93
2023-09-02T16:14:31.855Z,10.10
2023-09-02T16:17:21.451Z,10.32
2023-09-02T16:19:53.885Z,8.88
2023-09-02T16:22:26.448Z,8.32
2023-09-02T16:24:58.899Z,7.50
2023-09-02T16:27:31.396Z,8.05
2023-09-02T16:30:09.660Z,8.55
2023-09-02T16:32:42.532Z,7.93
2023-09-02T16:35:20.781Z,8.10
2023-09-02T16:37:53.310Z,7.45
2023-09-02T16:40:29.409Z,7.80
2023-09-02T16:43:02.213Z,8.25
2023-09-02T16:45:34.876Z,8.40
2023-09-02T16:48:10.436Z,8.18
2023-09-02T16:50:46.583Z,8.18
2023-09-02T16:53:19.762Z,8.20
2023-09-02T16:56:02.989Z,8.90
2023-09-02T16:58:36.750Z,9.50
2023-09-02T17:01:13.867Z,8.52
2023-09-02T17:03:52.960Z,8.95
2023-09-02T17:06:29.300Z,8.50
2023-09-02T17:09:03.437Z,8.90
2023-09-02T17:11:35.971Z,9.55
2023-09-02T17:14:09.467Z,9.32
2023-09-02T17:16:48.680Z,9.23
2023-09-02T17:19:21.387Z,10.38
2023-09-02T17:21:58.868Z,11.27
2023-09-02T17:24:31.692Z,11.45
2023-09-02T17:27:16.375Z,11.82
2023-09-02T17:29:52.635Z,11.88
2023-09-02T17:32:25.149Z,12.00
2023-09-02T17:34:57.833Z,11.25
2023-09-02T17:37:34.326Z,12.15
2023-09-02T17:40:07.327Z,10.27
2023-09-02T17:42:43.811Z,11.50
2023-09-02T17:45:16.372Z,11.80
2023-09-02T17:47:49.837Z,11.25
2023-09-02T17:50:22.955Z,10.57
2023-09-02T17:52:55.522Z,11.10
2023-09-02T17:55:28.042Z,10.48
2023-09-02T17:58:06.147Z,11.65
2023-09-02T18:00:38.632Z,11.30
2023-09-02T18:03:11.246Z,10.98
2023-09-02T18:05:43.834Z,12.43
2023-09-02T18:08:16.296Z,11.50
2023-09-02T18:10:48.744Z,11.52
2023-09-02T18:13:21.380Z,11.02
2023-09-02T18:15:53.858Z,12.10
2023-09-02T18:18:26.424Z,11.82
2023-09-02T18:20:59.056Z,10.88
2023-09-02T18:23:31.660Z,11.18
2023-09-02T18:26:04.231Z,11.23
2023-09-02T18:28:36.812Z,10.38
2023-09-02T18:31:14.581Z,11.68
2023-09-02T18:33:50.458Z,11.52
2023-09-02T18:36:26.305Z,12.55
2023-09-02T18:38:58.737Z,12.07
2023-09-02T18:41:31.269Z,11.45
2023-09-02T18:44:03.799Z,12.95
2023-09-02T18:46:36.315Z,12.95
2023-09-02T18:49:08.901Z,11.32
2023-09-02T18:51:41.375Z,12.18
2023-09-02T18:54:14.014Z,11.13
2023-09-02T18:56:46.426Z,11.55
2023-09-02T18:59:19.226Z,11.55
2023-09-02T19:01:51.860Z,10.85
2023-09-02T19:04:24.369Z,10.98
2023-09-02T19:06:56.890Z,12.05
2023-09-02T19:09:29.792Z,12.82
2023-09-02T19:12:02.308Z,11.50
2023-09-02T19:14:35.820Z,10.77
2023-09-02T19:17:08.464Z,12.10
2023-09-02T19:19:41.008Z,11.80
2023-09-02T19:22:13.547Z,10.40
2023-09-02T19:24:46.132Z,12.38
2023-09-02T19:27:18.732Z,12.98
2023-09-02T19:29:51.451Z,11.60
2023-09-02T19:32:24.018Z,12.30
2023-09-02T19:34:56.538Z,14.30
2023-09-02T19:37:29.098Z,15.05
2023-09-02T19:40:01.602Z,15.18
2023-09-02T19:42:34.055Z,13.38
2023-09-02T19:45:07.237Z,14.05
2023-09-02T19:47:39.795Z,14.48
2023-09-02T19:50:12.539Z,12.90
2023-09-02T19:52:45.152Z,12.32
2023-09-02T19:55:17.784Z,13.00
2023-09-02T19:57:50.480Z,13.27
2023-09-02T20:00:23.061Z,13.73
2023-09-02T20:02:55.554Z,12.98
2023-09-02T20:05:28.185Z,12.98
2023-09-02T20:08:00.668Z,15.25
2023-09-02T20:10:35.976Z,15.40
2023-09-02T20:13:08.789Z,15.48
2023-09-02T20:15:41.362Z,15.77
2023-09-02T20:18:13.958Z,13.55
2023-09-02T20:20:51.488Z,14.23
2023-09-02T20:23:24.146Z,12.70
2023-09-02T20:25:56.716Z,13.25
2023-09-02T20:28:29.310Z,12.90
2023-09-02T20:31:01.923Z,12.30
2023-09-02T20:33:34.439Z,12.13
2023-09-02T20:36:13.613Z,11.57
2023-09-02T20:38:46.512Z,12.43
2023-09-02T20:41:21.310Z,12.52
2023-09-02T20:43:55.000Z,13.45
2023-09-02T20:46:27.533Z,11.27
2023-09-02T20:49:00.366Z,11.40
2023-09-02T20:51:33.740Z,12.10
2023-09-02T20:54:07.448Z,12.32
2023-09-02T20:56:40.061Z,11.63
2023-09-02T20:59:12.590Z,11.40
2023-09-02T21:01:45.695Z,12.15
2023-09-02T21:04:18.435Z,13.55
2023-09-02T21:06:50.983Z,12.15
2023-09-02T21:09:23.619Z,12.98
2023-09-02T21:11:56.336Z,13.02
2023-09-02T21:14:28.801Z,12.65
2023-09-02T21:17:01.475Z,13.60
2023-09-02T21:19:38.274Z,13.50
2023-09-02T21:22:10.846Z,12.43
2023-09-02T21:24:43.322Z,12.88
2023-09-02T21:27:15.831Z,12.82
2023-09-02T21:29:48.746Z,11.93
2023-09-02T21:32:21.307Z,13.20
2023-09-02T21:34:53.991Z,12.95
2023-09-02T21:37:26.646Z,12.48
2023-09-02T21:39:59.390Z,12.50
2023-09-02T21:42:32.756Z,12.48
2023-09-02T21:45:05.926Z,12.25
2023-09-02T21:47:38.543Z,11.73
2023-09-02T21:50:11.132Z,12.07
2023-09-02T21:52:43.600Z,17.17
2023-09-02T21:55:16.322Z,12.60
2023-09-02T21:57:48.772Z,12.35
2023-09-02T22:00:21.211Z,12.07
2023-09-02T22:02:54.993Z,13.02
2023-09-02T22:05:27.716Z,11.68
2023-09-02T22:08:00.251Z,12.23
2023-09-02T22:10:33.247Z,13.15
2023-09-02T22:13:05.848Z,12.43
2023-09-02T22:15:38.333Z,11.93
2023-09-02T22:18:10.764Z,11.20
2023-09-02T22:20:43.294Z,13.27
2023-09-02T22:23:15.905Z,12.00
2023-09-02T22:25:49.395Z,11.15
2023-09-02T22:28:22.005Z,12.60
2023-09-02T22:30:55.484Z,11.73
2023-09-02T22:33:29.447Z,12.63
2023-09-02T22:36:02.704Z,12.13
2023-09-02T22:38:55.724Z,12.63
2023-09-02T22:41:28.307Z,12.68
2023-09-02T22:44:00.855Z,11.65
2023-09-02T22:46:33.607Z,12.00
2023-09-02T22:49:28.722Z,12.02
2023-09-02T22:52:01.263Z,10.77
2023-09-02T22:54:34.311Z,11.90
2023-09-02T22:57:06.846Z,11.70
2023-09-02T22:59:39.390Z,11.98
2023-09-02T23:02:11.953Z,11.40
2023-09-02T23:04:47.626Z,13.40
2023-09-02T23:07:20.070Z,11.32
2023-09-02T23:09:52.694Z,11.75
2023-09-02T23:12:25.239Z,11.18
2023-09-02T23:14:57.703Z,10.55
2023-09-02T23:17:30.267Z,11.55
2023-09-02T23:20:04.337Z,11.55
2023-09-02T23:22:37.160Z,11.48
2023-09-02T23:25:09.919Z,11.07
2023-09-02T23:27:49.868Z,11.95
2023-09-02T23:30:22.731Z,11.52
2023-09-02T23:32:55.361Z,9.85
2023-09-02T23:35:27.991Z,10.98
2023-09-02T23:38:00.473Z,10.52
2023-09-02T23:40:33.278Z,10.95
2023-09-02T23:43:05.794Z,9.95
2023-09-02T23:45:38.648Z,10.23
2023-09-02T23:48:11.156Z,11.45
2023-09-02T23:50:46.920Z,10.65
2023-09-02T23:53:19.637Z,10.77
2023-09-02T23:55:52.180Z,14.38
2023-09-02T23:58:24.752Z,10.68
